sensor_id;sensor_type;location;lat;lon;timestamp;P1;durP1;ratioP1;P2;durP2;ratioP2
6007;SDS011;3032;49.484;11.112;2022-09-09T00:01:40;2.90;;;2.65;;
6007;SDS011;3032;49.484;11.112;2022-09-09T00:04:26;8.07;;;3.45;;
6007;SDS011;3032;49.484;11.112;2022-09-09T00:09:31;3.38;;;2.95;;
6007;SDS011;3032;49.484;11.112;2022-09-09T00:14:38;3.50;;;2.65;;
6007;SDS011;3032;49.484;11.112;2022-09-09T00:17:14;3.92;;;3.50;;
6007;SDS011;3032;49.484;11.112;2022-09-09T00:19:53;8.38;;;2.97;;
6007;SDS011;3032;49.484;11.112;2022-09-09T00:22:25;3.28;;;2.97;;
6007;SDS011;3032;49.484;11.112;2022-09-09T00:24:55;3.50;;;3.15;;
6007;SDS011;3032;49.484;11.112;2022-09-09T00:27:38;3.38;;;2.88;;
6007;SDS011;3032;49.484;11.112;2022-09-09T00:30:18;4.78;;;2.88;;
6007;SDS011;3032;49.484;11.112;2022-09-09T00:32:47;3.25;;;2.90;;
6007;SDS011;3032;49.484;11.112;2022-09-09T00:35:22;3.33;;;3.00;;
6007;SDS011;3032;49.484;11.112;2022-09-09T00:37:53;2.97;;;2.75;;
6007;SDS011;3032;49.484;11.112;2022-09-09T00:40:32;4.00;;;2.97;;
6007;SDS011;3032;49.484;11.112;2022-09-09T00:43:14;4.80;;;3.78;;
6007;SDS011;3032;49.484;11.112;2022-09-09T00:46:16;4.30;;;3.05;;
6007;SDS011;3032;49.484;11.112;2022-09-09T00:54:51;3.83;;;3.25;;
6007;SDS011;3032;49.484;11.112;2022-09-09T00:57:38;7.20;;;3.40;;
6007;SDS011;3032;49.484;11.112;2022-09-09T01:05:20;5.67;;;3.73;;
6007;SDS011;3032;49.484;11.112;2022-09-09T01:08:24;5.20;;;3.70;;
6007;SDS011;3032;49.484;11.112;2022-09-09T01:17:46;4.78;;;4.18;;
6007;SDS011;3032;49.484;11.112;2022-09-09T01:27:43;5.57;;;3.65;;
6007;SDS011;3032;49.484;11.112;2022-09-09T01:30:11;5.40;;;3.47;;
6007;SDS011;3032;49.484;11.112;2022-09-09T01:35:18;4.93;;;4.13;;
6007;SDS011;3032;49.484;11.112;2022-09-09T01:37:57;4.68;;;3.85;;
6007;SDS011;3032;49.484;11.112;2022-09-09T01:40:23;4.83;;;3.20;;
6007;SDS011;3032;49.484;11.112;2022-09-09T01:42:49;4.10;;;3.70;;
6007;SDS011;3032;49.484;11.112;2022-09-09T01:45:15;3.90;;;3.60;;
6007;SDS011;3032;49.484;11.112;2022-09-09T01:47:41;4.13;;;3.77;;
6007;SDS011;3032;49.484;11.112;2022-09-09T01:50:07;7.43;;;3.90;;
6007;SDS011;3032;49.484;11.112;2022-09-09T01:52:37;4.20;;;3.80;;
6007;SDS011;3032;49.484;11.112;2022-09-09T01:55:03;4.13;;;3.40;;
6007;SDS011;3032;49.484;11.112;2022-09-09T01:57:31;4.22;;;3.05;;
6007;SDS011;3032;49.484;11.112;2022-09-09T02:00:05;4.22;;;3.85;;
6007;SDS011;3032;49.484;11.112;2022-09-09T02:08:00;3.77;;;3.47;;
6007;SDS011;3032;49.484;11.112;2022-09-09T02:10:37;3.80;;;3.38;;
6007;SDS011;3032;49.484;11.112;2022-09-09T02:13:16;3.65;;;3.35;;
6007;SDS011;3032;49.484;11.112;2022-09-09T02:15:46;7.00;;;3.35;;
6007;SDS011;3032;49.484;11.112;2022-09-09T02:18:17;5.55;;;3.47;;
6007;SDS011;3032;49.484;11.112;2022-09-09T02:20:49;6.68;;;3.20;;
6007;SDS011;3032;49.484;11.112;2022-09-09T02:23:16;3.20;;;2.90;;
6007;SDS011;3032;49.484;11.112;2022-09-09T02:25:42;3.08;;;2.70;;
6007;SDS011;3032;49.484;11.112;2022-09-09T02:28:09;5.65;;;3.10;;
6007;SDS011;3032;49.484;11.112;2022-09-09T02:30:37;5.97;;;3.38;;
6007;SDS011;3032;49.484;11.112;2022-09-09T02:33:05;6.72;;;3.40;;
6007;SDS011;3032;49.484;11.112;2022-09-09T02:35:32;8.23;;;2.80;;
6007;SDS011;3032;49.484;11.112;2022-09-09T02:38:03;3.35;;;2.83;;
6007;SDS011;3032;49.484;11.112;2022-09-09T02:40:31;3.10;;;2.90;;
6007;SDS011;3032;49.484;11.112;2022-09-09T02:42:57;3.80;;;3.20;;
6007;SDS011;3032;49.484;11.112;2022-09-09T02:45:23;6.53;;;3.30;;
6007;SDS011;3032;49.484;11.112;2022-09-09T02:48:11;3.65;;;3.10;;
6007;SDS011;3032;49.484;11.112;2022-09-09T02:51:08;4.13;;;3.40;;
6007;SDS011;3032;49.484;11.112;2022-09-09T02:54:04;4.15;;;3.20;;
6007;SDS011;3032;49.484;11.112;2022-09-09T02:56:43;3.55;;;3.20;;
6007;SDS011;3032;49.484;11.112;2022-09-09T02:59:14;5.18;;;3.40;;
6007;SDS011;3032;49.484;11.112;2022-09-09T03:01:41;3.65;;;3.33;;
6007;SDS011;3032;49.484;11.112;2022-09-09T03:04:06;7.70;;;3.57;;
6007;SDS011;3032;49.484;11.112;2022-09-09T03:06:32;3.13;;;2.80;;
6007;SDS011;3032;49.484;11.112;2022-09-09T03:08:58;4.70;;;3.20;;
6007;SDS011;3032;49.484;11.112;2022-09-09T03:11:25;5.28;;;3.13;;
6007;SDS011;3032;49.484;11.112;2022-09-09T03:13:52;4.50;;;2.92;;
6007;SDS011;3032;49.484;11.112;2022-09-09T03:16:19;4.82;;;3.05;;
6007;SDS011;3032;49.484;11.112;2022-09-09T03:18:46;6.97;;;3.45;;
6007;SDS011;3032;49.484;11.112;2022-09-09T03:21:11;2.90;;;2.60;;
6007;SDS011;3032;49.484;11.112;2022-09-09T03:23:37;3.50;;;2.80;;
6007;SDS011;3032;49.484;11.112;2022-09-09T03:26:03;3.70;;;2.80;;
6007;SDS011;3032;49.484;11.112;2022-09-09T03:28:28;9.30;;;3.33;;
6007;SDS011;3032;49.484;11.112;2022-09-09T03:31:02;7.32;;;3.33;;
6007;SDS011;3032;49.484;11.112;2022-09-09T03:33:30;5.10;;;2.80;;
6007;SDS011;3032;49.484;11.112;2022-09-09T03:35:56;2.80;;;2.60;;
6007;SDS011;3032;49.484;11.112;2022-09-09T03:38:22;5.82;;;3.10;;
6007;SDS011;3032;49.484;11.112;2022-09-09T03:40:52;8.95;;;3.17;;
6007;SDS011;3032;49.484;11.112;2022-09-09T03:43:25;2.90;;;2.70;;
6007;SDS011;3032;49.484;11.112;2022-09-09T03:45:52;4.53;;;2.80;;
6007;SDS011;3032;49.484;11.112;2022-09-09T03:48:18;2.60;;;2.40;;
6007;SDS011;3032;49.484;11.112;2022-09-09T03:50:47;3.92;;;2.95;;
6007;SDS011;3032;49.484;11.112;2022-09-09T03:53:15;4.97;;;2.25;;
6007;SDS011;3032;49.484;11.112;2022-09-09T03:55:43;6.25;;;3.00;;
6007;SDS011;3032;49.484;11.112;2022-09-09T03:58:14;5.25;;;3.05;;
6007;SDS011;3032;49.484;11.112;2022-09-09T04:00:43;3.20;;;2.95;;
6007;SDS011;3032;49.484;11.112;2022-09-09T04:03:10;3.85;;;3.20;;
6007;SDS011;3032;49.484;11.112;2022-09-09T04:05:36;4.95;;;3.33;;
6007;SDS011;3032;49.484;11.112;2022-09-09T04:08:05;2.88;;;2.60;;
6007;SDS011;3032;49.484;11.112;2022-09-09T04:10:31;2.50;;;2.30;;
6007;SDS011;3032;49.484;11.112;2022-09-09T04:12:57;8.05;;;3.10;;
6007;SDS011;3032;49.484;11.112;2022-09-09T04:15:24;2.70;;;2.50;;
6007;SDS011;3032;49.484;11.112;2022-09-09T04:17:49;3.53;;;3.03;;
6007;SDS011;3032;49.484;11.112;2022-09-09T04:20:15;3.10;;;2.80;;
6007;SDS011;3032;49.484;11.112;2022-09-09T04:22:41;3.63;;;3.23;;
6007;SDS011;3032;49.484;11.112;2022-09-09T04:25:07;3.03;;;2.83;;
6007;SDS011;3032;49.484;11.112;2022-09-09T04:27:33;2.80;;;2.60;;
6007;SDS011;3032;49.484;11.112;2022-09-09T04:29:58;3.67;;;3.00;;
6007;SDS011;3032;49.484;11.112;2022-09-09T04:32:24;3.00;;;2.80;;
6007;SDS011;3032;49.484;11.112;2022-09-09T04:34:53;2.67;;;2.45;;
6007;SDS011;3032;49.484;11.112;2022-09-09T04:37:18;3.07;;;2.80;;
6007;SDS011;3032;49.484;11.112;2022-09-09T04:39:44;2.80;;;2.60;;
6007;SDS011;3032;49.484;11.112;2022-09-09T04:42:10;4.47;;;3.43;;
6007;SDS011;3032;49.484;11.112;2022-09-09T04:44:37;5.18;;;2.95;;
6007;SDS011;3032;49.484;11.112;2022-09-09T04:47:02;6.20;;;3.00;;
6007;SDS011;3032;49.484;11.112;2022-09-09T04:49:28;4.07;;;2.97;;
6007;SDS011;3032;49.484;11.112;2022-09-09T04:51:56;8.60;;;3.00;;
6007;SDS011;3032;49.484;11.112;2022-09-09T04:54:21;4.00;;;3.60;;
6007;SDS011;3032;49.484;11.112;2022-09-09T04:56:47;4.13;;;3.67;;
6007;SDS011;3032;49.484;11.112;2022-09-09T04:59:15;7.68;;;3.72;;
6007;SDS011;3032;49.484;11.112;2022-09-09T05:01:41;4.37;;;3.67;;
6007;SDS011;3032;49.484;11.112;2022-09-09T05:04:07;4.60;;;3.40;;
6007;SDS011;3032;49.484;11.112;2022-09-09T05:06:34;4.75;;;3.58;;
6007;SDS011;3032;49.484;11.112;2022-09-09T05:09:01;4.15;;;3.67;;
6007;SDS011;3032;49.484;11.112;2022-09-09T05:11:27;4.18;;;3.40;;
6007;SDS011;3032;49.484;11.112;2022-09-09T05:13:57;6.40;;;3.35;;
6007;SDS011;3032;49.484;11.112;2022-09-09T05:16:23;4.30;;;3.20;;
6007;SDS011;3032;49.484;11.112;2022-09-09T05:18:48;5.00;;;2.77;;
6007;SDS011;3032;49.484;11.112;2022-09-09T05:21:15;7.50;;;3.20;;
6007;SDS011;3032;49.484;11.112;2022-09-09T05:23:42;5.88;;;3.22;;
6007;SDS011;3032;49.484;11.112;2022-09-09T05:26:09;5.30;;;3.53;;
6007;SDS011;3032;49.484;11.112;2022-09-09T05:28:38;5.47;;;3.15;;
6007;SDS011;3032;49.484;11.112;2022-09-09T05:31:05;4.00;;;3.20;;
6007;SDS011;3032;49.484;11.112;2022-09-09T05:33:37;4.10;;;2.80;;
6007;SDS011;3032;49.484;11.112;2022-09-09T05:36:06;3.10;;;2.90;;
6007;SDS011;3032;49.484;11.112;2022-09-09T05:38:33;7.38;;;2.90;;
6007;SDS011;3032;49.484;11.112;2022-09-09T05:41:00;2.85;;;2.75;;
6007;SDS011;3032;49.484;11.112;2022-09-09T05:43:30;5.75;;;3.10;;
6007;SDS011;3032;49.484;11.112;2022-09-09T05:46:06;3.88;;;3.05;;
6007;SDS011;3032;49.484;11.112;2022-09-09T05:48:37;2.63;;;2.40;;
6007;SDS011;3032;49.484;11.112;2022-09-09T05:51:07;5.07;;;3.50;;
6007;SDS011;3032;49.484;11.112;2022-09-09T05:53:35;5.63;;;3.28;;
6007;SDS011;3032;49.484;11.112;2022-09-09T05:56:02;5.25;;;2.95;;
6007;SDS011;3032;49.484;11.112;2022-09-09T05:58:30;4.05;;;2.55;;
6007;SDS011;3032;49.484;11.112;2022-09-09T06:01:00;4.47;;;3.13;;
6007;SDS011;3032;49.484;11.112;2022-09-09T06:03:34;4.10;;;2.45;;
6007;SDS011;3032;49.484;11.112;2022-09-09T06:06:01;4.40;;;2.85;;
6007;SDS011;3032;49.484;11.112;2022-09-09T06:08:32;4.55;;;3.13;;
6007;SDS011;3032;49.484;11.112;2022-09-09T06:11:06;4.30;;;3.28;;
6007;SDS011;3032;49.484;11.112;2022-09-09T06:13:34;4.72;;;3.45;;
6007;SDS011;3032;49.484;11.112;2022-09-09T06:16:02;3.20;;;2.90;;
6007;SDS011;3032;49.484;11.112;2022-09-09T06:18:28;4.65;;;3.65;;
6007;SDS011;3032;49.484;11.112;2022-09-09T06:20:58;3.08;;;2.88;;
6007;SDS011;3032;49.484;11.112;2022-09-09T06:23:31;6.13;;;3.92;;
6007;SDS011;3032;49.484;11.112;2022-09-09T06:28:31;3.78;;;2.47;;
6007;SDS011;3032;49.484;11.112;2022-09-09T06:31:04;6.60;;;2.85;;
6007;SDS011;3032;49.484;11.112;2022-09-09T06:33:34;3.35;;;3.00;;
6007;SDS011;3032;49.484;11.112;2022-09-09T06:36:04;7.70;;;3.50;;
6007;SDS011;3032;49.484;11.112;2022-09-09T06:38:30;2.80;;;2.50;;
6007;SDS011;3032;49.484;11.112;2022-09-09T06:40:56;7.63;;;3.07;;
6007;SDS011;3032;49.484;11.112;2022-09-09T06:43:24;5.63;;;2.58;;
6007;SDS011;3032;49.484;11.112;2022-09-09T06:48:27;5.38;;;2.95;;
6007;SDS011;3032;49.484;11.112;2022-09-09T06:51:00;3.38;;;3.00;;
6007;SDS011;3032;49.484;11.112;2022-09-09T06:53:27;3.92;;;3.53;;
6007;SDS011;3032;49.484;11.112;2022-09-09T06:55:53;7.60;;;4.50;;
6007;SDS011;3032;49.484;11.112;2022-09-09T06:58:19;7.40;;;5.70;;
6007;SDS011;3032;49.484;11.112;2022-09-09T07:00:46;5.32;;;4.80;;
6007;SDS011;3032;49.484;11.112;2022-09-09T07:03:13;5.80;;;4.93;;
6007;SDS011;3032;49.484;11.112;2022-09-09T07:05:38;6.60;;;4.10;;
6007;SDS011;3032;49.484;11.112;2022-09-09T07:08:04;4.07;;;3.10;;
6007;SDS011;3032;49.484;11.112;2022-09-09T07:10:30;3.90;;;3.60;;
6007;SDS011;3032;49.484;11.112;2022-09-09T07:12:56;3.43;;;2.37;;
6007;SDS011;3032;49.484;11.112;2022-09-09T07:15:21;3.10;;;2.10;;
6007;SDS011;3032;49.484;11.112;2022-09-09T07:17:47;3.22;;;2.00;;
6007;SDS011;3032;49.484;11.112;2022-09-09T07:20:13;8.00;;;2.73;;
6007;SDS011;3032;49.484;11.112;2022-09-09T07:22:40;4.40;;;3.78;;
6007;SDS011;3032;49.484;11.112;2022-09-09T07:25:06;3.63;;;3.33;;
6007;SDS011;3032;49.484;11.112;2022-09-09T07:27:32;3.45;;;3.25;;
6007;SDS011;3032;49.484;11.112;2022-09-09T07:29:58;5.90;;;2.90;;
6007;SDS011;3032;49.484;11.112;2022-09-09T07:32:24;4.25;;;2.35;;
6007;SDS011;3032;49.484;11.112;2022-09-09T07:34:50;4.03;;;2.00;;
6007;SDS011;3032;49.484;11.112;2022-09-09T07:37:16;2.83;;;2.33;;
6007;SDS011;3032;49.484;11.112;2022-09-09T07:39:42;2.65;;;2.45;;
6007;SDS011;3032;49.484;11.112;2022-09-09T07:42:08;10.73;;;4.40;;
6007;SDS011;3032;49.484;11.112;2022-09-09T07:44:36;5.35;;;3.70;;
6007;SDS011;3032;49.484;11.112;2022-09-09T07:47:04;4.43;;;4.00;;
6007;SDS011;3032;49.484;11.112;2022-09-09T07:49:30;3.45;;;3.10;;
6007;SDS011;3032;49.484;11.112;2022-09-09T07:51:57;2.47;;;1.95;;
6007;SDS011;3032;49.484;11.112;2022-09-09T07:54:23;3.42;;;2.00;;
6007;SDS011;3032;49.484;11.112;2022-09-09T07:56:49;2.90;;;1.70;;
6007;SDS011;3032;49.484;11.112;2022-09-09T07:59:15;2.03;;;1.70;;
6007;SDS011;3032;49.484;11.112;2022-09-09T08:01:43;2.80;;;1.80;;
6007;SDS011;3032;49.484;11.112;2022-09-09T08:04:16;2.42;;;1.75;;
6007;SDS011;3032;49.484;11.112;2022-09-09T08:06:45;4.85;;;2.30;;
6007;SDS011;3032;49.484;11.112;2022-09-09T08:09:12;2.45;;;1.98;;
6007;SDS011;3032;49.484;11.112;2022-09-09T08:11:39;3.08;;;1.98;;
6007;SDS011;3032;49.484;11.112;2022-09-09T08:14:06;1.98;;;1.33;;
6007;SDS011;3032;49.484;11.112;2022-09-09T08:16:33;1.40;;;1.30;;
6007;SDS011;3032;49.484;11.112;2022-09-09T08:19:01;3.38;;;1.30;;
6007;SDS011;3032;49.484;11.112;2022-09-09T08:21:28;2.17;;;1.63;;
6007;SDS011;3032;49.484;11.112;2022-09-09T08:23:57;2.90;;;1.40;;
6007;SDS011;3032;49.484;11.112;2022-09-09T08:26:24;1.65;;;1.30;;
6007;SDS011;3032;49.484;11.112;2022-09-09T08:28:53;4.30;;;1.65;;
6007;SDS011;3032;49.484;11.112;2022-09-09T08:31:31;2.33;;;1.60;;
6007;SDS011;3032;49.484;11.112;2022-09-09T08:34:08;1.23;;;1.15;;
6007;SDS011;3032;49.484;11.112;2022-09-09T08:36:36;4.22;;;1.52;;
6007;SDS011;3032;49.484;11.112;2022-09-09T08:39:07;2.85;;;1.27;;
6007;SDS011;3032;49.484;11.112;2022-09-09T08:41:56;1.58;;;1.20;;
6007;SDS011;3032;49.484;11.112;2022-09-09T08:58:04;1.00;;;1.00;;
6007;SDS011;3032;49.484;11.112;2022-09-09T09:03:12;2.70;;;1.40;;
6007;SDS011;3032;49.484;11.112;2022-09-09T09:06:04;2.65;;;1.30;;
6007;SDS011;3032;49.484;11.112;2022-09-09T09:09:01;1.42;;;1.33;;
6007;SDS011;3032;49.484;11.112;2022-09-09T09:11:36;1.50;;;1.20;;
6007;SDS011;3032;49.484;11.112;2022-09-09T09:19:21;2.67;;;1.40;;
6007;SDS011;3032;49.484;11.112;2022-09-09T09:22:16;3.35;;;1.58;;
6007;SDS011;3032;49.484;11.112;2022-09-09T09:27:31;2.30;;;1.27;;
6007;SDS011;3032;49.484;11.112;2022-09-09T09:30:00;2.08;;;1.20;;
6007;SDS011;3032;49.484;11.112;2022-09-09T09:32:40;3.45;;;1.70;;
6007;SDS011;3032;49.484;11.112;2022-09-09T09:35:12;2.13;;;1.10;;
6007;SDS011;3032;49.484;11.112;2022-09-09T09:37:39;3.75;;;1.40;;
6007;SDS011;3032;49.484;11.112;2022-09-09T09:40:16;1.45;;;1.30;;
6007;SDS011;3032;49.484;11.112;2022-09-09T09:45:41;1.67;;;1.10;;
6007;SDS011;3032;49.484;11.112;2022-09-09T09:48:10;1.05;;;0.90;;
6007;SDS011;3032;49.484;11.112;2022-09-09T09:50:54;2.55;;;1.00;;
6007;SDS011;3032;49.484;11.112;2022-09-09T09:53:29;3.42;;;1.13;;
6007;SDS011;3032;49.484;11.112;2022-09-09T09:56:00;1.27;;;0.88;;
6007;SDS011;3032;49.484;11.112;2022-09-09T09:58:29;0.90;;;0.90;;
6007;SDS011;3032;49.484;11.112;2022-09-09T10:00:58;2.00;;;0.93;;
6007;SDS011;3032;49.484;11.112;2022-09-09T10:03:26;3.00;;;1.20;;
6007;SDS011;3032;49.484;11.112;2022-09-09T10:05:54;2.28;;;1.70;;
6007;SDS011;3032;49.484;11.112;2022-09-09T10:08:21;1.33;;;1.00;;
6007;SDS011;3032;49.484;11.112;2022-09-09T10:10:51;1.10;;;1.00;;
6007;SDS011;3032;49.484;11.112;2022-09-09T10:19:33;1.65;;;0.90;;
6007;SDS011;3032;49.484;11.112;2022-09-09T10:25:04;1.20;;;1.10;;
6007;SDS011;3032;49.484;11.112;2022-09-09T10:30:52;1.40;;;1.20;;
6007;SDS011;3032;49.484;11.112;2022-09-09T10:36:26;1.02;;;0.90;;
6007;SDS011;3032;49.484;11.112;2022-09-09T10:38:56;1.00;;;0.85;;
6007;SDS011;3032;49.484;11.112;2022-09-09T10:41:40;0.95;;;0.75;;
6007;SDS011;3032;49.484;11.112;2022-09-09T10:44:45;1.35;;;0.80;;
6007;SDS011;3032;49.484;11.112;2022-09-09T10:53:01;1.13;;;0.98;;
6007;SDS011;3032;49.484;11.112;2022-09-09T10:55:42;3.13;;;1.20;;
6007;SDS011;3032;49.484;11.112;2022-09-09T10:58:12;7.20;;;1.55;;
6007;SDS011;3032;49.484;11.112;2022-09-09T11:00:45;1.20;;;0.95;;
6007;SDS011;3032;49.484;11.112;2022-09-09T11:03:19;1.40;;;1.30;;
6007;SDS011;3032;49.484;11.112;2022-09-09T11:05:49;2.45;;;1.30;;
6007;SDS011;3032;49.484;11.112;2022-09-09T11:08:22;3.08;;;1.40;;
6007;SDS011;3032;49.484;11.112;2022-09-09T11:13:41;4.70;;;1.58;;
6007;SDS011;3032;49.484;11.112;2022-09-09T11:16:29;1.45;;;1.00;;
6007;SDS011;3032;49.484;11.112;2022-09-09T11:19:00;4.85;;;1.15;;
6007;SDS011;3032;49.484;11.112;2022-09-09T11:21:31;4.32;;;1.20;;
6007;SDS011;3032;49.484;11.112;2022-09-09T11:26:46;1.50;;;1.00;;
6007;SDS011;3032;49.484;11.112;2022-09-09T11:32:15;1.42;;;1.05;;
6007;SDS011;3032;49.484;11.112;2022-09-09T11:40:31;2.85;;;1.30;;
6007;SDS011;3032;49.484;11.112;2022-09-09T11:43:18;3.13;;;1.00;;
6007;SDS011;3032;49.484;11.112;2022-09-09T11:45:53;1.50;;;1.00;;
6007;SDS011;3032;49.484;11.112;2022-09-09T11:48:40;3.85;;;1.20;;
6007;SDS011;3032;49.484;11.112;2022-09-09T11:51:25;5.32;;;1.35;;
6007;SDS011;3032;49.484;11.112;2022-09-09T11:54:02;2.28;;;1.40;;
6007;SDS011;3032;49.484;11.112;2022-09-09T11:56:47;2.58;;;1.20;;
6007;SDS011;3032;49.484;11.112;2022-09-09T12:02:02;1.30;;;1.10;;
6007;SDS011;3032;49.484;11.112;2022-09-09T12:04:50;3.78;;;1.10;;
6007;SDS011;3032;49.484;11.112;2022-09-09T12:07:34;1.10;;;1.00;;
6007;SDS011;3032;49.484;11.112;2022-09-09T12:12:47;1.63;;;1.00;;
6007;SDS011;3032;49.484;11.112;2022-09-09T12:15:17;2.77;;;1.30;;
6007;SDS011;3032;49.484;11.112;2022-09-09T12:17:53;2.28;;;1.05;;
6007;SDS011;3032;49.484;11.112;2022-09-09T12:28:15;1.95;;;1.30;;
6007;SDS011;3032;49.484;11.112;2022-09-09T12:33:45;2.25;;;1.20;;
6007;SDS011;3032;49.484;11.112;2022-09-09T12:36:16;1.00;;;0.80;;
6007;SDS011;3032;49.484;11.112;2022-09-09T12:38:48;2.03;;;1.20;;
6007;SDS011;3032;49.484;11.112;2022-09-09T12:41:20;1.67;;;0.82;;
6007;SDS011;3032;49.484;11.112;2022-09-09T12:43:50;0.90;;;0.90;;
6007;SDS011;3032;49.484;11.112;2022-09-09T12:46:35;1.02;;;0.80;;
6007;SDS011;3032;49.484;11.112;2022-09-09T12:49:05;1.45;;;0.88;;
6007;SDS011;3032;49.484;11.112;2022-09-09T12:51:48;1.65;;;0.80;;
6007;SDS011;3032;49.484;11.112;2022-09-09T12:54:14;2.70;;;1.07;;
6007;SDS011;3032;49.484;11.112;2022-09-09T12:56:40;1.33;;;0.83;;
6007;SDS011;3032;49.484;11.112;2022-09-09T12:59:21;1.63;;;1.00;;
6007;SDS011;3032;49.484;11.112;2022-09-09T13:01:55;2.83;;;1.00;;
6007;SDS011;3032;49.484;11.112;2022-09-09T13:04:22;3.25;;;1.27;;
6007;SDS011;3032;49.484;11.112;2022-09-09T13:06:47;2.50;;;1.20;;
6007;SDS011;3032;49.484;11.112;2022-09-09T13:09:14;5.55;;;1.30;;
6007;SDS011;3032;49.484;11.112;2022-09-09T13:11:43;3.92;;;1.50;;
6007;SDS011;3032;49.484;11.112;2022-09-09T13:14:18;3.35;;;1.05;;
6007;SDS011;3032;49.484;11.112;2022-09-09T13:16:57;2.03;;;1.10;;
6007;SDS011;3032;49.484;11.112;2022-09-09T13:19:25;5.68;;;1.30;;
6007;SDS011;3032;49.484;11.112;2022-09-09T13:21:53;1.95;;;0.90;;
6007;SDS011;3032;49.484;11.112;2022-09-09T13:24:30;3.03;;;1.10;;
6007;SDS011;3032;49.484;11.112;2022-09-09T13:29:27;2.33;;;1.00;;
6007;SDS011;3032;49.484;11.112;2022-09-09T13:31:54;1.92;;;1.08;;
6007;SDS011;3032;49.484;11.112;2022-09-09T13:34:49;1.70;;;1.00;;
6007;SDS011;3032;49.484;11.112;2022-09-09T13:37:33;2.20;;;1.17;;
6007;SDS011;3032;49.484;11.112;2022-09-09T13:40:01;3.10;;;1.00;;
6007;SDS011;3032;49.484;11.112;2022-09-09T13:42:29;1.58;;;0.90;;
6007;SDS011;3032;49.484;11.112;2022-09-09T13:45:00;1.02;;;0.93;;
6007;SDS011;3032;49.484;11.112;2022-09-09T13:47:30;2.50;;;1.37;;
6007;SDS011;3032;49.484;11.112;2022-09-09T13:49:58;2.70;;;1.15;;
6007;SDS011;3032;49.484;11.112;2022-09-09T13:52:34;2.10;;;1.30;;
6007;SDS011;3032;49.484;11.112;2022-09-09T13:55:00;2.70;;;1.48;;
6007;SDS011;3032;49.484;11.112;2022-09-09T13:57:26;1.30;;;1.00;;
6007;SDS011;3032;49.484;11.112;2022-09-09T13:59:52;2.00;;;1.20;;
6007;SDS011;3032;49.484;11.112;2022-09-09T14:02:19;1.60;;;1.20;;
6007;SDS011;3032;49.484;11.112;2022-09-09T14:04:46;1.38;;;0.80;;
6007;SDS011;3032;49.484;11.112;2022-09-09T14:07:12;1.20;;;0.90;;
6007;SDS011;3032;49.484;11.112;2022-09-09T14:09:42;1.35;;;1.05;;
6007;SDS011;3032;49.484;11.112;2022-09-09T14:12:11;2.17;;;1.00;;
6007;SDS011;3032;49.484;11.112;2022-09-09T14:14:38;2.83;;;0.93;;
6007;SDS011;3032;49.484;11.112;2022-09-09T14:17:04;1.90;;;0.70;;
6007;SDS011;3032;49.484;11.112;2022-09-09T14:19:30;1.10;;;0.80;;
6007;SDS011;3032;49.484;11.112;2022-09-09T14:21:56;0.85;;;0.85;;
6007;SDS011;3032;49.484;11.112;2022-09-09T14:24:22;0.77;;;0.77;;
6007;SDS011;3032;49.484;11.112;2022-09-09T14:26:48;0.83;;;0.80;;
6007;SDS011;3032;49.484;11.112;2022-09-09T14:29:14;1.17;;;0.80;;
6007;SDS011;3032;49.484;11.112;2022-09-09T14:31:39;1.27;;;0.80;;
6007;SDS011;3032;49.484;11.112;2022-09-09T14:34:05;1.20;;;0.80;;
6007;SDS011;3032;49.484;11.112;2022-09-09T14:36:31;2.13;;;1.13;;
6007;SDS011;3032;49.484;11.112;2022-09-09T14:38:56;1.20;;;0.90;;
6007;SDS011;3032;49.484;11.112;2022-09-09T14:41:22;2.43;;;1.00;;
6007;SDS011;3032;49.484;11.112;2022-09-09T14:43:48;5.55;;;1.00;;
6007;SDS011;3032;49.484;11.112;2022-09-09T14:46:15;1.42;;;0.93;;
6007;SDS011;3032;49.484;11.112;2022-09-09T14:48:42;2.22;;;1.20;;
6007;SDS011;3032;49.484;11.112;2022-09-09T14:51:10;2.97;;;1.17;;
6007;SDS011;3032;49.484;11.112;2022-09-09T14:53:38;3.58;;;1.30;;
6007;SDS011;3032;49.484;11.112;2022-09-09T14:56:05;2.35;;;1.20;;
6007;SDS011;3032;49.484;11.112;2022-09-09T14:58:33;3.00;;;1.30;;
6007;SDS011;3032;49.484;11.112;2022-09-09T15:01:03;2.00;;;1.27;;
6007;SDS011;3032;49.484;11.112;2022-09-09T15:03:29;2.80;;;1.10;;
6007;SDS011;3032;49.484;11.112;2022-09-09T15:05:55;2.67;;;1.00;;
6007;SDS011;3032;49.484;11.112;2022-09-09T15:08:23;1.30;;;1.00;;
6007;SDS011;3032;49.484;11.112;2022-09-09T15:10:49;3.88;;;1.52;;
6007;SDS011;3032;49.484;11.112;2022-09-09T15:13:15;2.27;;;1.30;;
6007;SDS011;3032;49.484;11.112;2022-09-09T15:15:42;2.25;;;1.10;;
6007;SDS011;3032;49.484;11.112;2022-09-09T15:18:08;4.25;;;1.33;;
6007;SDS011;3032;49.484;11.112;2022-09-09T15:20:34;2.17;;;1.10;;
6007;SDS011;3032;49.484;11.112;2022-09-09T15:23:02;5.70;;;1.50;;
6007;SDS011;3032;49.484;11.112;2022-09-09T15:25:27;4.33;;;1.30;;
6007;SDS011;3032;49.484;11.112;2022-09-09T15:27:53;3.70;;;1.23;;
6007;SDS011;3032;49.484;11.112;2022-09-09T15:30:19;1.33;;;0.97;;
6007;SDS011;3032;49.484;11.112;2022-09-09T15:32:44;1.13;;;1.03;;
6007;SDS011;3032;49.484;11.112;2022-09-09T15:35:10;3.83;;;1.20;;
6007;SDS011;3032;49.484;11.112;2022-09-09T15:37:35;2.10;;;1.30;;
6007;SDS011;3032;49.484;11.112;2022-09-09T15:40:01;1.33;;;0.97;;
6007;SDS011;3032;49.484;11.112;2022-09-09T15:42:26;4.27;;;1.23;;
6007;SDS011;3032;49.484;11.112;2022-09-09T15:44:52;2.60;;;1.20;;
6007;SDS011;3032;49.484;11.112;2022-09-09T15:47:17;4.93;;;1.27;;
6007;SDS011;3032;49.484;11.112;2022-09-09T15:49:43;4.37;;;1.13;;
6007;SDS011;3032;49.484;11.112;2022-09-09T15:52:09;2.57;;;1.00;;
6007;SDS011;3032;49.484;11.112;2022-09-09T15:54:36;1.65;;;1.20;;
6007;SDS011;3032;49.484;11.112;2022-09-09T15:57:04;8.68;;;1.10;;
6007;SDS011;3032;49.484;11.112;2022-09-09T15:59:32;4.57;;;1.52;;
6007;SDS011;3032;49.484;11.112;2022-09-09T16:01:58;5.28;;;1.35;;
6007;SDS011;3032;49.484;11.112;2022-09-09T16:04:25;4.50;;;1.23;;
6007;SDS011;3032;49.484;11.112;2022-09-09T16:06:52;2.53;;;1.13;;
6007;SDS011;3032;49.484;11.112;2022-09-09T16:09:19;1.95;;;1.23;;
6007;SDS011;3032;49.484;11.112;2022-09-09T16:11:45;4.47;;;1.20;;
6007;SDS011;3032;49.484;11.112;2022-09-09T16:14:11;2.08;;;1.20;;
6007;SDS011;3032;49.484;11.112;2022-09-09T16:16:38;1.65;;;1.20;;
6007;SDS011;3032;49.484;11.112;2022-09-09T16:19:05;1.10;;;1.00;;
6007;SDS011;3032;49.484;11.112;2022-09-09T16:21:35;2.75;;;1.00;;
6007;SDS011;3032;49.484;11.112;2022-09-09T16:24:02;2.78;;;1.58;;
6007;SDS011;3032;49.484;11.112;2022-09-09T16:26:30;0.90;;;0.80;;
6007;SDS011;3032;49.484;11.112;2022-09-09T16:28:57;3.05;;;1.13;;
6007;SDS011;3032;49.484;11.112;2022-09-09T16:31:25;1.00;;;0.90;;
6007;SDS011;3032;49.484;11.112;2022-09-09T16:33:52;0.85;;;0.80;;
6007;SDS011;3032;49.484;11.112;2022-09-09T16:36:22;1.87;;;0.70;;
6007;SDS011;3032;49.484;11.112;2022-09-09T16:38:55;1.50;;;0.68;;
6007;SDS011;3032;49.484;11.112;2022-09-09T16:41:25;0.95;;;0.60;;
6007;SDS011;3032;49.484;11.112;2022-09-09T16:43:54;1.13;;;0.77;;
6007;SDS011;3032;49.484;11.112;2022-09-09T16:46:21;3.13;;;1.05;;
6007;SDS011;3032;49.484;11.112;2022-09-09T16:48:49;1.17;;;0.85;;
6007;SDS011;3032;49.484;11.112;2022-09-09T16:51:16;1.17;;;0.85;;
6007;SDS011;3032;49.484;11.112;2022-09-09T16:53:43;1.33;;;0.80;;
6007;SDS011;3032;49.484;11.112;2022-09-09T16:56:10;1.40;;;0.80;;
6007;SDS011;3032;49.484;11.112;2022-09-09T16:58:38;1.02;;;0.93;;
6007;SDS011;3032;49.484;11.112;2022-09-09T17:01:03;1.67;;;0.53;;
6007;SDS011;3032;49.484;11.112;2022-09-09T17:03:30;2.05;;;1.00;;
6007;SDS011;3032;49.484;11.112;2022-09-09T17:05:56;1.70;;;1.60;;
6007;SDS011;3032;49.484;11.112;2022-09-09T17:08:23;2.03;;;1.55;;
6007;SDS011;3032;49.484;11.112;2022-09-09T17:10:49;5.03;;;1.50;;
6007;SDS011;3032;49.484;11.112;2022-09-09T17:13:15;2.47;;;1.15;;
6007;SDS011;3032;49.484;11.112;2022-09-09T17:15:44;1.45;;;1.23;;
6007;SDS011;3032;49.484;11.112;2022-09-09T17:18:10;1.27;;;1.17;;
6007;SDS011;3032;49.484;11.112;2022-09-09T17:20:37;2.63;;;1.00;;
6007;SDS011;3032;49.484;11.112;2022-09-09T17:23:07;1.38;;;1.23;;